Time,TemperatureF,DewpointF,PressureIn,WindDirection,WindDirectionDegrees,WindSpeedMPH,WindSpeedGustMPH,Humidity,HourlyPrecipIn,Conditions,Clouds,dailyrainin,SoftwareType,DateUTC
2013-03-11 00:00:00,43.0,43.0,30.28,SSE,160,14.0,15.0,100,-99.99,,,-99.99,,2013-03-11 04:00:00,
2013-03-11 00:21:00,43.0,43.0,30.28,SSE,160,14.0,15.0,100,-99.99,,,-99.99,,2013-03-11 04:21:00,
2013-03-11 00:32:00,43.0,43.0,30.28,SSE,160,14.0,15.0,100,-99.99,,,-99.99,,2013-03-11 04:32:00,
2013-03-11 00:42:00,43.0,43.0,30.28,SSE,160,14.0,15.0,100,-99.99,,,-99.99,,2013-03-11 04:42:00,
2013-03-11 00:52:00,43.0,43.0,30.28,SSE,160,14.0,15.0,100,-99.99,,,-99.99,,2013-03-11 04:52:00,
2013-03-11 01:00:00,42.0,42.0,30.28,SSE,160,13.0,14.0,100,-99.99,,,-99.99,,2013-03-11 05:00:00,
2013-03-11 01:21:00,42.0,42.0,30.28,SSE,160,13.0,14.0,100,-99.99,,,-99.99,,2013-03-11 05:21:00,
2013-03-11 01:31:00,42.0,42.0,30.28,SSE,160,13.0,14.0,100,-99.99,,,-99.99,,2013-03-11 05:31:00,
2013-03-11 01:42:00,42.0,42.0,30.28,SSE,160,13.0,14.0,100,-99.99,,,-99.99,,2013-03-11 05:42:00,
2013-03-11 01:51:00,42.0,42.0,30.28,SSE,160,13.0,14.0,100,-99.99,,,-99.99,,2013-03-11 05:51:00,
2013-03-11 02:00:00,42.0,42.0,30.27,SSE,160,13.0,14.0,100,-99.99,,,-99.99,,2013-03-11 06:00:00,
2013-03-11 02:11:00,42.0,42.0,30.27,SSE,160,13.0,14.0,100,-99.99,,,-99.99,,2013-03-11 06:11:00,
2013-03-11 02:21:00,42.0,42.0,30.27,SSE,160,13.0,14.0,100,-99.99,,,-99.99,,2013-03-11 06:21:00,
2013-03-11 02:32:00,42.0,42.0,30.27,SSE,160,13.0,14.0,100,-99.99,,,-99.99,,2013-03-11 06:32:00,
2013-03-11 02:41:00,42.0,42.0,30.27,SSE,160,13.0,14.0,100,-99.99,,,-99.99,,2013-03-11 06:41:00,
2013-03-11 02:52:00,42.0,42.0,30.27,SSE,160,13.0,14.0,100,-99.99,,,-99.99,,2013-03-11 06:52:00,
2013-03-11 03:00:00,42.0,42.0,30.27,South,190,10.0,11.0,100,-99.99,,,-99.99,,2013-03-11 07:00:00,
2013-03-11 03:11:00,42.0,42.0,30.27,South,190,10.0,11.0,100,-99.99,,,-99.99,,2013-03-11 07:11:00,
2013-03-11 03:21:00,42.0,42.0,30.27,South,190,10.0,11.0,100,-99.99,,,-99.99,,2013-03-11 07:21:00,
2013-03-11 03:31:00,42.0,42.0,30.27,South,190,10.0,11.0,100,-99.99,,,-99.99,,2013-03-11 07:31:00,
2013-03-11 03:41:00,42.0,42.0,30.27,South,190,10.0,11.0,100,-99.99,,,-99.99,,2013-03-11 07:41:00,
2013-03-11 03:52:00,42.0,42.0,30.27,South,190,10.0,11.0,100,-99.99,,,-99.99,,2013-03-11 07:52:00,
2013-03-11 04:00:00,41.0,41.0,30.24,South,170,13.0,14.0,100,-99.99,,,-99.99,,2013-03-11 08:00:00,
2013-03-11 04:11:00,41.0,41.0,30.24,South,170,13.0,14.0,100,-99.99,,,-99.99,,2013-03-11 08:11:00,
2013-03-11 04:21:00,41.0,41.0,30.24,South,170,13.0,14.0,100,-99.99,,,-99.99,,2013-03-11 08:21:00,
2013-03-11 04:31:00,41.0,41.0,30.24,South,170,13.0,14.0,100,-99.99,,,-99.99,,2013-03-11 08:31:00,
2013-03-11 04:41:00,41.0,41.0,30.24,South,170,13.0,14.0,100,-99.99,,,-99.99,,2013-03-11 08:41:00,
2013-03-11 04:51:00,41.0,41.0,30.24,South,170,13.0,14.0,100,-99.99,,,-99.99,,2013-03-11 08:51:00,
2013-03-11 05:00:00,41.0,41.0,30.23,South,170,15.0,17.0,100,-99.99,,,-99.99,,2013-03-11 09:00:00,
2013-03-11 05:21:00,41.0,41.0,30.23,South,170,15.0,17.0,100,-99.99,,,-99.99,,2013-03-11 09:21:00,
2013-03-11 05:31:00,41.0,41.0,30.23,South,170,15.0,17.0,100,-99.99,,,-99.99,,2013-03-11 09:31:00,
2013-03-11 05:41:00,41.0,41.0,30.23,South,170,15.0,17.0,100,-99.99,,,-99.99,,2013-03-11 09:41:00,
2013-03-11 05:51:00,41.0,41.0,30.23,South,170,15.0,17.0,100,-99.99,,,-99.99,,2013-03-11 09:51:00,
2013-03-11 06:00:00,42.0,42.0,30.22,SSE,160,16.0,17.0,100,-99.99,,,-99.99,,2013-03-11 10:00:00,
2013-03-11 06:21:00,42.0,42.0,30.22,SSE,160,16.0,17.0,100,-99.99,,,-99.99,,2013-03-11 10:21:00,
2013-03-11 06:32:00,42.0,42.0,30.22,SSE,160,16.0,17.0,100,-99.99,,,-99.99,,2013-03-11 10:32:00,
2013-03-11 06:41:00,42.0,42.0,30.22,SSE,160,16.0,17.0,100,-99.99,,,-99.99,,2013-03-11 10:41:00,
2013-03-11 06:52:00,42.0,42.0,30.22,SSE,160,16.0,17.0,100,-99.99,,,-99.99,,2013-03-11 10:52:00,
2013-03-11 07:00:00,42.0,42.0,30.22,SSE,160,14.0,15.0,100,-99.99,,,-99.99,,2013-03-11 11:00:00,
2013-03-11 07:21:00,42.0,42.0,30.22,SSE,160,14.0,15.0,100,-99.99,,,-99.99,,2013-03-11 11:21:00,
2013-03-11 07:31:00,42.0,42.0,30.22,SSE,160,14.0,15.0,100,-99.99,,,-99.99,,2013-03-11 11:31:00,
2013-03-11 07:41:00,42.0,42.0,30.22,SSE,160,14.0,15.0,100,-99.99,,,-99.99,,2013-03-11 11:41:00,
2013-03-11 07:52:00,42.0,42.0,30.22,SSE,160,14.0,15.0,100,-99.99,,,-99.99,,2013-03-11 11:52:00,
2013-03-11 08:00:00,42.0,42.0,30.22,SSE,150,11.0,13.0,100,-99.99,,,-99.99,,2013-03-11 12:00:00,
2013-03-11 08:11:00,42.0,42.0,30.22,SSE,150,11.0,13.0,100,-99.99,,,-99.99,,2013-03-11 12:11:00,
2013-03-11 08:21:00,42.0,42.0,30.22,SSE,150,11.0,13.0,100,-99.99,,,-99.99,,2013-03-11 12:21:00,
2013-03-11 08:32:00,42.0,42.0,30.22,SSE,150,11.0,13.0,100,-99.99,,,-99.99,,2013-03-11 12:32:00,
2013-03-11 08:42:00,42.0,42.0,30.22,SSE,150,11.0,13.0,100,-99.99,,,-99.99,,2013-03-11 12:42:00,
2013-03-11 08:51:00,42.0,42.0,30.22,SSE,150,11.0,13.0,100,-99.99,,,-99.99,,2013-03-11 12:51:00,
2013-03-11 09:00:00,42.0,42.0,30.23,South,170,11.0,14.0,100,-99.99,,,-99.99,,2013-03-11 13:00:00,
2013-03-11 09:21:00,42.0,42.0,30.23,South,170,11.0,14.0,100,-99.99,,,-99.99,,2013-03-11 13:21:00,
2013-03-11 09:32:00,42.0,42.0,30.23,South,170,11.0,14.0,100,-99.99,,,-99.99,,2013-03-11 13:32:00,
2013-03-11 09:41:00,42.0,42.0,30.23,South,170,11.0,14.0,100,-99.99,,,-99.99,,2013-03-11 13:41:00,
2013-03-11 09:52:00,42.0,42.0,30.23,South,170,11.0,14.0,100,-99.99,,,-99.99,,2013-03-11 13:52:00,
2013-03-11 10:11:00,42.0,42.0,30.22,SSE,150,13.0,14.0,100,-99.99,,,-99.99,,2013-03-11 14:11:00,
2013-03-11 10:21:00,42.0,42.0,30.22,SSE,150,13.0,14.0,100,-99.99,,,-99.99,,2013-03-11 14:21:00,
2013-03-11 10:31:00,42.0,42.0,30.22,SSE,150,13.0,14.0,100,-99.99,,,-99.99,,2013-03-11 14:31:00,
2013-03-11 10:41:00,42.0,42.0,30.22,SSE,150,13.0,14.0,100,-99.99,,,-99.99,,2013-03-11 14:41:00,
2013-03-11 10:52:00,42.0,42.0,30.22,SSE,150,13.0,14.0,100,-99.99,,,-99.99,,2013-03-11 14:52:00,
2013-03-11 11:00:00,43.0,43.0,30.19,SE,140,13.0,15.0,100,-99.99,,,-99.99,,2013-03-11 15:00:00,
2013-03-11 11:11:00,43.0,43.0,30.19,SE,140,13.0,15.0,100,-99.99,,,-99.99,,2013-03-11 15:11:00,
2013-03-11 11:21:00,43.0,43.0,30.19,SE,140,13.0,15.0,100,-99.99,,,-99.99,,2013-03-11 15:21:00,
2013-03-11 11:31:00,43.0,43.0,30.19,SE,140,13.0,15.0,100,-99.99,,,-99.99,,2013-03-11 15:31:00,
2013-03-11 11:52:00,43.0,43.0,30.19,SE,140,13.0,15.0,100,-99.99,,,-99.99,,2013-03-11 15:52:00,
2013-03-11 12:00:00,44.0,44.0,30.19,SSE,160,9.0,10.0,100,-99.99,,,-99.99,,2013-03-11 16:00:00,
2013-03-11 12:11:00,44.0,44.0,30.19,SSE,160,9.0,10.0,100,-99.99,,,-99.99,,2013-03-11 16:11:00,
2013-03-11 12:21:00,44.0,44.0,30.19,SSE,160,9.0,10.0,100,-99.99,,,-99.99,,2013-03-11 16:21:00,
2013-03-11 12:31:00,44.0,44.0,30.19,SSE,160,9.0,10.0,100,-99.99,,,-99.99,,2013-03-11 16:31:00,
2013-03-11 12:42:00,44.0,44.0,30.19,SSE,160,9.0,10.0,100,-99.99,,,-99.99,,2013-03-11 16:42:00,
2013-03-11 12:51:00,44.0,44.0,30.19,SSE,160,9.0,10.0,100,-99.99,,,-99.99,,2013-03-11 16:51:00,
2013-03-11 13:00:00,45.0,45.0,30.18,SSE,160,11.0,11.0,100,-99.99,,,-99.99,,2013-03-11 17:00:00,
2013-03-11 13:22:00,45.0,45.0,30.18,SSE,160,11.0,11.0,100,-99.99,,,-99.99,,2013-03-11 17:22:00,
2013-03-11 13:32:00,45.0,45.0,30.18,SSE,160,11.0,11.0,100,-99.99,,,-99.99,,2013-03-11 17:32:00,
2013-03-11 13:41:00,45.0,45.0,30.18,SSE,160,11.0,11.0,100,-99.99,,,-99.99,,2013-03-11 17:41:00,
2013-03-11 13:52:00,45.0,45.0,30.18,SSE,160,11.0,11.0,100,-99.99,,,-99.99,,2013-03-11 17:52:00,
2013-03-11 14:00:00,47.0,47.0,30.14,SSE,160,11.0,11.0,100,-99.99,,,-99.99,,2013-03-11 18:00:00,
2013-03-11 14:21:00,47.0,47.0,30.14,SSE,160,11.0,11.0,100,-99.99,,,-99.99,,2013-03-11 18:21:00,
2013-03-11 14:32:00,47.0,47.0,30.14,SSE,160,11.0,11.0,100,-99.99,,,-99.99,,2013-03-11 18:32:00,
2013-03-11 14:42:00,47.0,47.0,30.14,SSE,160,11.0,11.0,100,-99.99,,,-99.99,,2013-03-11 18:42:00,
2013-03-11 14:52:00,47.0,47.0,30.14,SSE,160,11.0,11.0,100,-99.99,,,-99.99,,2013-03-11 18:52:00,
2013-03-11 15:00:00,49.0,49.0,30.11,SSE,160,11.0,14.0,100,-99.99,,,-99.99,,2013-03-11 19:00:00,
2013-03-11 15:21:00,49.0,49.0,30.11,SSE,160,11.0,14.0,100,-99.99,,,-99.99,,2013-03-11 19:21:00,
2013-03-11 15:32:00,49.0,49.0,30.11,SSE,160,11.0,14.0,100,-99.99,,,-99.99,,2013-03-11 19:32:00,
2013-03-11 15:41:00,49.0,49.0,30.11,SSE,160,11.0,14.0,100,-99.99,,,-99.99,,2013-03-11 19:41:00,
2013-03-11 15:52:00,49.0,49.0,30.11,SSE,160,11.0,14.0,100,-99.99,,,-99.99,,2013-03-11 19:52:00,
2013-03-11 16:00:00,48.0,48.0,30.10,South,170,7.0,8.0,100,-99.99,,,-99.99,,2013-03-11 20:00:00,
2013-03-11 16:11:00,48.0,48.0,30.10,South,170,7.0,8.0,100,-99.99,,,-99.99,,2013-03-11 20:11:00,
2013-03-11 16:21:00,48.0,48.0,30.10,South,170,7.0,8.0,100,-99.99,,,-99.99,,2013-03-11 20:21:00,
2013-03-11 16:31:00,48.0,48.0,30.10,South,170,7.0,8.0,100,-99.99,,,-99.99,,2013-03-11 20:31:00,
2013-03-11 16:42:00,48.0,48.0,30.10,South,170,7.0,8.0,100,-99.99,,,-99.99,,2013-03-11 20:42:00,
2013-03-11 16:51:00,48.0,48.0,30.10,South,170,7.0,8.0,100,-99.99,,,-99.99,,2013-03-11 20:51:00,
2013-03-11 17:00:00,50.0,50.0,30.07,South,170,13.0,13.0,100,-99.99,,,-99.99,,2013-03-11 21:00:00,
2013-03-11 17:11:00,50.0,50.0,30.07,South,170,13.0,13.0,100,-99.99,,,-99.99,,2013-03-11 21:11:00,
2013-03-11 17:21:00,50.0,50.0,30.07,South,170,13.0,13.0,100,-99.99,,,-99.99,,2013-03-11 21:21:00,
2013-03-11 17:31:00,50.0,50.0,30.07,South,170,13.0,13.0,100,-99.99,,,-99.99,,2013-03-11 21:31:00,
2013-03-11 17:42:00,50.0,50.0,30.07,South,170,13.0,13.0,100,-99.99,,,-99.99,,2013-03-11 21:42:00,
2013-03-11 17:51:00,50.0,50.0,30.07,South,170,13.0,13.0,100,-99.99,,,-99.99,,2013-03-11 21:51:00,
2013-03-11 18:00:00,49.0,49.0,30.05,SSE,160,11.0,13.0,100,-99.99,,,-99.99,,2013-03-11 22:00:00,
2013-03-11 18:11:00,49.0,49.0,30.05,SSE,160,11.0,13.0,100,-99.99,,,-99.99,,2013-03-11 22:11:00,
2013-03-11 18:21:00,49.0,49.0,30.05,SSE,160,11.0,13.0,100,-99.99,,,-99.99,,2013-03-11 22:21:00,
2013-03-11 18:31:00,49.0,49.0,30.05,SSE,160,11.0,13.0,100,-99.99,,,-99.99,,2013-03-11 22:31:00,
2013-03-11 18:42:00,49.0,49.0,30.05,SSE,160,11.0,13.0,100,-99.99,,,-99.99,,2013-03-11 22:42:00,
2013-03-11 18:52:00,49.0,49.0,30.05,SSE,160,11.0,13.0,100,-99.99,,,-99.99,,2013-03-11 22:52:00,
2013-03-11 19:00:00,48.0,48.0,30.06,South,180,9.0,10.0,100,-99.99,,,-99.99,,2013-03-11 23:00:00,
2013-03-11 19:21:00,48.0,48.0,30.06,South,180,9.0,10.0,100,-99.99,,,-99.99,,2013-03-11 23:21:00,
2013-03-11 19:32:00,48.0,48.0,30.06,South,180,9.0,10.0,100,-99.99,,,-99.99,,2013-03-11 23:32:00,
2013-03-11 19:42:00,48.0,48.0,30.06,South,180,9.0,10.0,100,-99.99,,,-99.99,,2013-03-11 23:42:00,
2013-03-11 19:52:00,48.0,48.0,30.06,South,180,9.0,10.0,100,-99.99,,,-99.99,,2013-03-11 23:52:00,
2013-03-11 20:00:00,50.0,50.0,30.02,SSE,150,18.0,21.0,99,-99.99,,,-99.99,,2013-03-12 00:00:00,
2013-03-11 20:22:00,50.0,50.0,30.02,SSE,150,18.0,21.0,99,-99.99,,,-99.99,,2013-03-12 00:22:00,
2013-03-11 20:32:00,50.0,50.0,30.02,SSE,150,18.0,21.0,99,-99.99,,,-99.99,,2013-03-12 00:32:00,
2013-03-11 20:42:00,50.0,50.0,30.02,SSE,150,18.0,21.0,99,-99.99,,,-99.99,,2013-03-12 00:42:00,
2013-03-11 20:52:00,50.0,50.0,30.02,SSE,150,18.0,21.0,99,-99.99,,,-99.99,,2013-03-12 00:52:00,
2013-03-11 21:00:00,50.0,49.0,30.04,SSE,160,15.0,16.0,96,-99.99,,,-99.99,,2013-03-12 01:00:00,
2013-03-11 21:21:00,50.0,49.0,30.04,SSE,160,15.0,16.0,96,-99.99,,,-99.99,,2013-03-12 01:21:00,
2013-03-11 21:31:00,50.0,49.0,30.04,SSE,160,15.0,16.0,96,-99.99,,,-99.99,,2013-03-12 01:31:00,
2013-03-11 21:41:00,50.0,49.0,30.04,SSE,160,15.0,16.0,96,-99.99,,,-99.99,,2013-03-12 01:41:00,
2013-03-11 21:52:00,50.0,49.0,30.04,SSE,160,15.0,16.0,96,-99.99,,,-99.99,,2013-03-12 01:52:00,
2013-03-11 22:00:00,45.0,45.0,30.05,SSW,200,11.0,13.0,100,-99.99,,,-99.99,,2013-03-12 02:00:00,
2013-03-11 22:21:00,45.0,45.0,30.05,SSW,200,11.0,13.0,100,-99.99,,,-99.99,,2013-03-12 02:21:00,
2013-03-11 22:31:00,45.0,45.0,30.05,SSW,200,11.0,13.0,100,-99.99,,,-99.99,,2013-03-12 02:31:00,
2013-03-11 22:41:00,45.0,45.0,30.05,SSW,200,11.0,13.0,100,-99.99,,,-99.99,,2013-03-12 02:41:00,
2013-03-11 22:51:00,45.0,45.0,30.05,SSW,200,11.0,13.0,100,-99.99,,,-99.99,,2013-03-12 02:51:00,
2013-03-11 23:00:00,48.0,48.0,30.03,SSE,160,24.0,25.0,99,-99.99,,,-99.99,,2013-03-12 03:00:00,
2013-03-11 23:21:00,48.0,48.0,30.03,SSE,160,24.0,25.0,99,-99.99,,,-99.99,,2013-03-12 03:21:00,
2013-03-11 23:31:00,48.0,48.0,30.03,SSE,160,24.0,25.0,99,-99.99,,,-99.99,,2013-03-12 03:31:00,
2013-03-11 23:42:00,48.0,48.0,30.03,SSE,160,24.0,25.0,99,-99.99,,,-99.99,,2013-03-12 03:42:00,
2013-03-11 23:51:00,48.0,48.0,30.03,SSE,160,24.0,25.0,99,-99.99,,,-99.99,,2013-03-12 03:51:00,